sensor_id;sensor_type;location;lat;lon;timestamp;temperature;humidity
40059;SHT31;25763;49.972;8.568;2022-08-06T00:02:08;18.85;61.89
40059;SHT31;25763;49.972;8.568;2022-08-06T00:04:33;18.77;61.48
40059;SHT31;25763;49.972;8.568;2022-08-06T00:06:58;18.79;61.57
40059;SHT31;25763;49.972;8.568;2022-08-06T00:09:24;18.73;61.30
40059;SHT31;25763;49.972;8.568;2022-08-06T00:11:49;18.64;61.51
40059;SHT31;25763;49.972;8.568;2022-08-06T00:14:15;18.51;62.08
40059;SHT31;25763;49.972;8.568;2022-08-06T00:16:40;18.44;62.05
40059;SHT31;25763;49.972;8.568;2022-08-06T00:19:06;18.35;61.83
40059;SHT31;25763;49.972;8.568;2022-08-06T00:21:32;18.30;61.79
40059;SHT31;25763;49.972;8.568;2022-08-06T00:23:57;18.38;63.26
40059;SHT31;25763;49.972;8.568;2022-08-06T00:26:22;18.31;61.99
40059;SHT31;25763;49.972;8.568;2022-08-06T00:28:49;18.47;64.03
40059;SHT31;25763;49.972;8.568;2022-08-06T00:31:15;18.54;63.93
40059;SHT31;25763;49.972;8.568;2022-08-06T00:33:40;18.55;64.19
40059;SHT31;25763;49.972;8.568;2022-08-06T00:36:07;18.51;64.49
40059;SHT31;25763;49.972;8.568;2022-08-06T00:38:32;18.31;63.55
40059;SHT31;25763;49.972;8.568;2022-08-06T00:40:57;18.26;64.46
40059;SHT31;25763;49.972;8.568;2022-08-06T00:43:23;18.02;64.69
40059;SHT31;25763;49.972;8.568;2022-08-06T00:45:48;17.98;65.10
40059;SHT31;25763;49.972;8.568;2022-08-06T00:48:14;17.99;66.47
40059;SHT31;25763;49.972;8.568;2022-08-06T00:50:40;17.93;67.18
40059;SHT31;25763;49.972;8.568;2022-08-06T00:53:05;17.98;67.66
40059;SHT31;25763;49.972;8.568;2022-08-06T00:55:31;17.92;65.37
40059;SHT31;25763;49.972;8.568;2022-08-06T00:57:57;18.00;67.27
40059;SHT31;25763;49.972;8.568;2022-08-06T01:00:22;18.09;67.16
40059;SHT31;25763;49.972;8.568;2022-08-06T01:02:48;18.10;66.93
40059;SHT31;25763;49.972;8.568;2022-08-06T01:05:13;18.12;66.97
40059;SHT31;25763;49.972;8.568;2022-08-06T01:07:38;18.09;66.99
40059;SHT31;25763;49.972;8.568;2022-08-06T01:10:04;18.06;66.85
40059;SHT31;25763;49.972;8.568;2022-08-06T01:12:29;18.02;66.47
40059;SHT31;25763;49.972;8.568;2022-08-06T01:14:55;17.99;66.07
40059;SHT31;25763;49.972;8.568;2022-08-06T01:20:29;17.93;65.41
40059;SHT31;25763;49.972;8.568;2022-08-06T01:23:11;17.95;64.39
40059;SHT31;25763;49.972;8.568;2022-08-06T01:25:48;17.89;64.94
40059;SHT31;25763;49.972;8.568;2022-08-06T01:28:28;17.86;63.98
40059;SHT31;25763;49.972;8.568;2022-08-06T01:31:01;17.84;64.08
40059;SHT31;25763;49.972;8.568;2022-08-06T01:33:35;17.84;64.14
40059;SHT31;25763;49.972;8.568;2022-08-06T01:36:06;17.84;63.38
40059;SHT31;25763;49.972;8.568;2022-08-06T01:38:33;17.82;63.43
40059;SHT31;25763;49.972;8.568;2022-08-06T01:41:02;17.79;63.37
40059;SHT31;25763;49.972;8.568;2022-08-06T01:43:31;17.74;62.57
40059;SHT31;25763;49.972;8.568;2022-08-06T01:45:58;17.73;63.39
40059;SHT31;25763;49.972;8.568;2022-08-06T01:48:26;17.71;63.31
40059;SHT31;25763;49.972;8.568;2022-08-06T01:50:54;17.70;63.02
40059;SHT31;25763;49.972;8.568;2022-08-06T01:53:25;17.63;63.19
40059;SHT31;25763;49.972;8.568;2022-08-06T01:55:56;17.64;62.76
40059;SHT31;25763;49.972;8.568;2022-08-06T01:58:30;17.63;62.65
40059;SHT31;25763;49.972;8.568;2022-08-06T02:00:58;17.60;62.98
40059;SHT31;25763;49.972;8.568;2022-08-06T02:03:29;17.46;59.20
40059;SHT31;25763;49.972;8.568;2022-08-06T02:05:56;17.49;62.36
40059;SHT31;25763;49.972;8.568;2022-08-06T02:08:24;17.46;62.12
40059;SHT31;25763;49.972;8.568;2022-08-06T02:10:51;17.43;60.98
40059;SHT31;25763;49.972;8.568;2022-08-06T02:13:20;17.39;61.32
40059;SHT31;25763;49.972;8.568;2022-08-06T02:15:48;17.37;60.46
40059;SHT31;25763;49.972;8.568;2022-08-06T02:18:15;17.41;61.97
40059;SHT31;25763;49.972;8.568;2022-08-06T02:20:45;17.43;61.69
40059;SHT31;25763;49.972;8.568;2022-08-06T02:23:18;17.43;62.26
40059;SHT31;25763;49.972;8.568;2022-08-06T02:25:45;17.34;61.20
40059;SHT31;25763;49.972;8.568;2022-08-06T02:28:12;17.32;60.93
40059;SHT31;25763;49.972;8.568;2022-08-06T02:30:42;17.25;60.55
40059;SHT31;25763;49.972;8.568;2022-08-06T02:33:09;17.29;61.74
40059;SHT31;25763;49.972;8.568;2022-08-06T02:35:39;17.36;61.45
40059;SHT31;25763;49.972;8.568;2022-08-06T02:38:11;17.32;61.65
40059;SHT31;25763;49.972;8.568;2022-08-06T02:40:43;17.34;61.92
40059;SHT31;25763;49.972;8.568;2022-08-06T02:43:15;17.30;61.77
40059;SHT31;25763;49.972;8.568;2022-08-06T02:45:47;17.33;62.00
40059;SHT31;25763;49.972;8.568;2022-08-06T02:48:21;17.30;62.21
40059;SHT31;25763;49.972;8.568;2022-08-06T02:50:49;17.26;62.25
40059;SHT31;25763;49.972;8.568;2022-08-06T02:53:28;17.23;61.69
40059;SHT31;25763;49.972;8.568;2022-08-06T02:55:57;17.26;62.05
40059;SHT31;25763;49.972;8.568;2022-08-06T02:58:46;17.20;61.95
40059;SHT31;25763;49.972;8.568;2022-08-06T03:01:14;17.22;61.92
40059;SHT31;25763;49.972;8.568;2022-08-06T03:03:42;17.20;61.97
40059;SHT31;25763;49.972;8.568;2022-08-06T03:06:11;17.19;62.15
40059;SHT31;25763;49.972;8.568;2022-08-06T03:08:38;17.20;62.41
40059;SHT31;25763;49.972;8.568;2022-08-06T03:11:05;17.22;62.02
40059;SHT31;25763;49.972;8.568;2022-08-06T03:13:32;17.20;62.38
40059;SHT31;25763;49.972;8.568;2022-08-06T03:15:58;17.18;62.36
40059;SHT31;25763;49.972;8.568;2022-08-06T03:18:25;17.14;62.11
40059;SHT31;25763;49.972;8.568;2022-08-06T03:20:51;17.14;62.26
40059;SHT31;25763;49.972;8.568;2022-08-06T03:23:18;17.11;62.64
40059;SHT31;25763;49.972;8.568;2022-08-06T03:25:44;17.11;62.50
40059;SHT31;25763;49.972;8.568;2022-08-06T03:28:12;17.02;61.68
40059;SHT31;25763;49.972;8.568;2022-08-06T03:30:39;17.01;62.46
40059;SHT31;25763;49.972;8.568;2022-08-06T03:33:09;16.87;61.85
40059;SHT31;25763;49.972;8.568;2022-08-06T03:35:35;16.85;62.00
40059;SHT31;25763;49.972;8.568;2022-08-06T03:38:01;16.90;62.84
40059;SHT31;25763;49.972;8.568;2022-08-06T03:40:28;16.91;62.90
40059;SHT31;25763;49.972;8.568;2022-08-06T03:42:54;16.88;62.17
40059;SHT31;25763;49.972;8.568;2022-08-06T03:45:19;16.70;61.41
40059;SHT31;25763;49.972;8.568;2022-08-06T03:47:49;16.75;62.72
40059;SHT31;25763;49.972;8.568;2022-08-06T03:50:20;16.78;62.73
40059;SHT31;25763;49.972;8.568;2022-08-06T03:52:54;16.60;62.03
40059;SHT31;25763;49.972;8.568;2022-08-06T03:55:23;16.67;62.12
40059;SHT31;25763;49.972;8.568;2022-08-06T03:57:52;16.64;62.49
40059;SHT31;25763;49.972;8.568;2022-08-06T04:00:19;16.50;61.67
40059;SHT31;25763;49.972;8.568;2022-08-06T04:02:51;16.28;61.50
40059;SHT31;25763;49.972;8.568;2022-08-06T04:05:23;16.25;61.76
40059;SHT31;25763;49.972;8.568;2022-08-06T04:07:52;16.32;62.08
40059;SHT31;25763;49.972;8.568;2022-08-06T04:10:19;16.25;62.46
40059;SHT31;25763;49.972;8.568;2022-08-06T04:12:45;16.38;63.37
40059;SHT31;25763;49.972;8.568;2022-08-06T04:15:14;16.33;61.90
40059;SHT31;25763;49.972;8.568;2022-08-06T04:17:41;16.33;62.00
40059;SHT31;25763;49.972;8.568;2022-08-06T04:20:09;16.25;61.69
40059;SHT31;25763;49.972;8.568;2022-08-06T04:22:34;16.17;61.62
40059;SHT31;25763;49.972;8.568;2022-08-06T04:25:00;16.21;62.85
40059;SHT31;25763;49.972;8.568;2022-08-06T04:27:26;16.24;62.38
40059;SHT31;25763;49.972;8.568;2022-08-06T04:29:53;16.17;62.79
40059;SHT31;25763;49.972;8.568;2022-08-06T04:32:20;16.21;62.55
40059;SHT31;25763;49.972;8.568;2022-08-06T04:34:48;16.01;62.21
40059;SHT31;25763;49.972;8.568;2022-08-06T04:37:14;16.17;63.27
40059;SHT31;25763;49.972;8.568;2022-08-06T04:39:39;15.96;62.90
40059;SHT31;25763;49.972;8.568;2022-08-06T04:42:06;16.00;63.18
40059;SHT31;25763;49.972;8.568;2022-08-06T04:44:33;16.03;62.62
40059;SHT31;25763;49.972;8.568;2022-08-06T04:46:58;15.80;63.26
40059;SHT31;25763;49.972;8.568;2022-08-06T04:49:24;15.65;63.34
40059;SHT31;25763;49.972;8.568;2022-08-06T04:51:50;15.71;64.39
40059;SHT31;25763;49.972;8.568;2022-08-06T04:54:15;15.88;64.84
40059;SHT31;25763;49.972;8.568;2022-08-06T04:56:42;15.94;64.43
40059;SHT31;25763;49.972;8.568;2022-08-06T04:59:08;15.88;63.57
40059;SHT31;25763;49.972;8.568;2022-08-06T05:01:35;15.98;64.03
40059;SHT31;25763;49.972;8.568;2022-08-06T05:04:00;16.12;64.33
40059;SHT31;25763;49.972;8.568;2022-08-06T05:06:49;16.18;63.93
40059;SHT31;25763;49.972;8.568;2022-08-06T05:09:22;16.21;62.76
40059;SHT31;25763;49.972;8.568;2022-08-06T05:11:51;16.08;62.29
40059;SHT31;25763;49.972;8.568;2022-08-06T05:14:29;16.12;63.74
40059;SHT31;25763;49.972;8.568;2022-08-06T05:16:56;16.10;63.23
40059;SHT31;25763;49.972;8.568;2022-08-06T05:19:26;16.21;64.49
40059;SHT31;25763;49.972;8.568;2022-08-06T05:21:55;16.38;63.88
40059;SHT31;25763;49.972;8.568;2022-08-06T05:24:22;16.43;63.02
40059;SHT31;25763;49.972;8.568;2022-08-06T05:26:47;16.47;62.38
40059;SHT31;25763;49.972;8.568;2022-08-06T05:29:18;16.49;62.81
40059;SHT31;25763;49.972;8.568;2022-08-06T05:31:44;16.59;62.87
40059;SHT31;25763;49.972;8.568;2022-08-06T05:34:11;16.74;63.58
40059;SHT31;25763;49.972;8.568;2022-08-06T05:36:37;16.70;62.35
40059;SHT31;25763;49.972;8.568;2022-08-06T05:39:03;16.77;61.94
40059;SHT31;25763;49.972;8.568;2022-08-06T05:41:29;16.97;62.62
40059;SHT31;25763;49.972;8.568;2022-08-06T05:43:54;17.09;62.93
40059;SHT31;25763;49.972;8.568;2022-08-06T05:46:21;17.04;60.93
40059;SHT31;25763;49.972;8.568;2022-08-06T05:49:05;17.20;62.22
40059;SHT31;25763;49.972;8.568;2022-08-06T05:51:51;17.32;60.74
40059;SHT31;25763;49.972;8.568;2022-08-06T05:54:23;17.41;61.34
40059;SHT31;25763;49.972;8.568;2022-08-06T05:57:00;17.57;61.19
40059;SHT31;25763;49.972;8.568;2022-08-06T05:59:29;17.46;59.52
40059;SHT31;25763;49.972;8.568;2022-08-06T06:01:57;17.36;59.67
40059;SHT31;25763;49.972;8.568;2022-08-06T06:04:23;17.41;59.89
40059;SHT31;25763;49.972;8.568;2022-08-06T06:06:49;17.50;59.16
40059;SHT31;25763;49.972;8.568;2022-08-06T06:09:15;17.63;60.45
40059;SHT31;25763;49.972;8.568;2022-08-06T06:11:41;17.78;58.69
40059;SHT31;25763;49.972;8.568;2022-08-06T06:14:24;18.05;60.53
40059;SHT31;25763;49.972;8.568;2022-08-06T06:17:10;18.18;58.70
40059;SHT31;25763;49.972;8.568;2022-08-06T06:22:21;18.65;59.58
40059;SHT31;25763;49.972;8.568;2022-08-06T06:25:11;18.58;57.28
40059;SHT31;25763;49.972;8.568;2022-08-06T06:27:46;18.44;57.60
40059;SHT31;25763;49.972;8.568;2022-08-06T06:33:18;18.65;58.54
40059;SHT31;25763;49.972;8.568;2022-08-06T06:35:56;18.82;59.12
40059;SHT31;25763;49.972;8.568;2022-08-06T06:38:40;19.04;57.75
40059;SHT31;25763;49.972;8.568;2022-08-06T06:41:37;18.90;57.63
40059;SHT31;25763;49.972;8.568;2022-08-06T06:44:12;19.06;56.96
40059;SHT31;25763;49.972;8.568;2022-08-06T06:46:54;18.96;56.89
40059;SHT31;25763;49.972;8.568;2022-08-06T06:49:40;18.87;56.71
40059;SHT31;25763;49.972;8.568;2022-08-06T06:54:47;18.83;57.42
40059;SHT31;25763;49.972;8.568;2022-08-06T06:57:17;18.87;58.26
40059;SHT31;25763;49.972;8.568;2022-08-06T06:59:44;18.77;56.91
40059;SHT31;25763;49.972;8.568;2022-08-06T07:02:18;19.04;58.69
40059;SHT31;25763;49.972;8.568;2022-08-06T07:04:47;19.11;56.68
40059;SHT31;25763;49.972;8.568;2022-08-06T07:07:15;19.45;57.67
40059;SHT31;25763;49.972;8.568;2022-08-06T07:09:41;19.80;56.31
40059;SHT31;25763;49.972;8.568;2022-08-06T07:12:10;19.66;55.98
40059;SHT31;25763;49.972;8.568;2022-08-06T07:14:37;19.88;55.51
40059;SHT31;25763;49.972;8.568;2022-08-06T07:17:04;19.77;55.78
40059;SHT31;25763;49.972;8.568;2022-08-06T07:19:30;20.04;55.58
40059;SHT31;25763;49.972;8.568;2022-08-06T07:21:58;20.26;56.17
40059;SHT31;25763;49.972;8.568;2022-08-06T07:24:24;20.49;54.76
40059;SHT31;25763;49.972;8.568;2022-08-06T07:26:51;20.43;54.01
40059;SHT31;25763;49.972;8.568;2022-08-06T07:29:19;20.08;54.60
40059;SHT31;25763;49.972;8.568;2022-08-06T07:31:46;20.10;55.04
40059;SHT31;25763;49.972;8.568;2022-08-06T07:34:14;20.17;54.16
40059;SHT31;25763;49.972;8.568;2022-08-06T07:36:46;20.60;54.43
40059;SHT31;25763;49.972;8.568;2022-08-06T07:39:23;20.46;53.16
40059;SHT31;25763;49.972;8.568;2022-08-06T07:41:51;20.66;55.14
40059;SHT31;25763;49.972;8.568;2022-08-06T07:44:20;20.50;53.75
40059;SHT31;25763;49.972;8.568;2022-08-06T07:46:47;20.55;52.52
40059;SHT31;25763;49.972;8.568;2022-08-06T07:49:16;20.52;52.06
40059;SHT31;25763;49.972;8.568;2022-08-06T07:51:44;20.80;50.37
40059;SHT31;25763;49.972;8.568;2022-08-06T07:54:11;20.76;51.24
40059;SHT31;25763;49.972;8.568;2022-08-06T07:56:39;20.85;51.28
40059;SHT31;25763;49.972;8.568;2022-08-06T07:59:06;20.84;51.36
40059;SHT31;25763;49.972;8.568;2022-08-06T08:01:32;20.69;49.04
40059;SHT31;25763;49.972;8.568;2022-08-06T08:03:58;20.69;49.32
40059;SHT31;25763;49.972;8.568;2022-08-06T08:06:43;21.11;51.10
40059;SHT31;25763;49.972;8.568;2022-08-06T08:09:12;21.01;48.21
40059;SHT31;25763;49.972;8.568;2022-08-06T08:11:41;21.05;48.57
40059;SHT31;25763;49.972;8.568;2022-08-06T08:14:09;21.09;47.28
40059;SHT31;25763;49.972;8.568;2022-08-06T08:16:36;21.01;48.33
40059;SHT31;25763;49.972;8.568;2022-08-06T08:19:03;21.02;48.30
40059;SHT31;25763;49.972;8.568;2022-08-06T08:21:29;21.61;50.00
40059;SHT31;25763;49.972;8.568;2022-08-06T08:23:55;21.92;49.98
40059;SHT31;25763;49.972;8.568;2022-08-06T08:26:20;22.13;47.88
40059;SHT31;25763;49.972;8.568;2022-08-06T08:28:46;21.70;46.37
40059;SHT31;25763;49.972;8.568;2022-08-06T08:31:12;20.63;47.78
40059;SHT31;25763;49.972;8.568;2022-08-06T08:33:39;20.49;49.52
40059;SHT31;25763;49.972;8.568;2022-08-06T08:36:05;21.08;48.48
40059;SHT31;25763;49.972;8.568;2022-08-06T08:38:32;21.20;49.24
40059;SHT31;25763;49.972;8.568;2022-08-06T08:41:03;21.20;47.73
40059;SHT31;25763;49.972;8.568;2022-08-06T08:43:34;21.47;48.23
40059;SHT31;25763;49.972;8.568;2022-08-06T08:46:02;21.18;48.03
40059;SHT31;25763;49.972;8.568;2022-08-06T08:48:29;21.39;48.19
40059;SHT31;25763;49.972;8.568;2022-08-06T08:50:57;21.75;47.96
40059;SHT31;25763;49.972;8.568;2022-08-06T08:53:37;21.81;46.70
40059;SHT31;25763;49.972;8.568;2022-08-06T08:56:03;21.39;45.50
40059;SHT31;25763;49.972;8.568;2022-08-06T08:58:29;21.56;47.66
40059;SHT31;25763;49.972;8.568;2022-08-06T09:00:57;22.05;47.92
40059;SHT31;25763;49.972;8.568;2022-08-06T09:03:23;22.34;46.41
40059;SHT31;25763;49.972;8.568;2022-08-06T09:05:48;22.47;46.33
40059;SHT31;25763;49.972;8.568;2022-08-06T09:08:14;22.61;45.59
40059;SHT31;25763;49.972;8.568;2022-08-06T09:10:41;22.34;45.05
40059;SHT31;25763;49.972;8.568;2022-08-06T09:13:06;22.49;47.50
40059;SHT31;25763;49.972;8.568;2022-08-06T09:15:32;21.74;46.05
40059;SHT31;25763;49.972;8.568;2022-08-06T09:17:57;21.85;45.97
40059;SHT31;25763;49.972;8.568;2022-08-06T09:20:22;22.16;44.87
40059;SHT31;25763;49.972;8.568;2022-08-06T09:22:48;22.45;46.24
40059;SHT31;25763;49.972;8.568;2022-08-06T09:25:35;22.50;45.75
40059;SHT31;25763;49.972;8.568;2022-08-06T09:28:00;22.83;46.19
40059;SHT31;25763;49.972;8.568;2022-08-06T09:30:25;22.82;44.49
40059;SHT31;25763;49.972;8.568;2022-08-06T09:32:54;22.51;43.65
40059;SHT31;25763;49.972;8.568;2022-08-06T09:35:23;22.76;46.21
40059;SHT31;25763;49.972;8.568;2022-08-06T09:37:50;22.78;44.63
40059;SHT31;25763;49.972;8.568;2022-08-06T09:40:19;23.17;45.41
40059;SHT31;25763;49.972;8.568;2022-08-06T09:42:49;22.47;41.42
40059;SHT31;25763;49.972;8.568;2022-08-06T09:45:18;22.41;42.58
40059;SHT31;25763;49.972;8.568;2022-08-06T09:47:45;22.81;44.71
40059;SHT31;25763;49.972;8.568;2022-08-06T09:50:10;22.43;45.06
40059;SHT31;25763;49.972;8.568;2022-08-06T09:52:36;22.93;45.92
40059;SHT31;25763;49.972;8.568;2022-08-06T09:55:01;23.28;43.55
40059;SHT31;25763;49.972;8.568;2022-08-06T09:57:44;23.15;43.34
40059;SHT31;25763;49.972;8.568;2022-08-06T10:00:10;23.06;42.84
40059;SHT31;25763;49.972;8.568;2022-08-06T10:02:36;23.31;44.53
40059;SHT31;25763;49.972;8.568;2022-08-06T10:05:11;23.57;42.33
40059;SHT31;25763;49.972;8.568;2022-08-06T10:07:37;23.83;42.72
40059;SHT31;25763;49.972;8.568;2022-08-06T10:10:03;23.96;41.15
40059;SHT31;25763;49.972;8.568;2022-08-06T10:12:30;23.58;40.26
40059;SHT31;25763;49.972;8.568;2022-08-06T10:14:56;23.66;42.46
40059;SHT31;25763;49.972;8.568;2022-08-06T10:17:22;23.37;43.73
40059;SHT31;25763;49.972;8.568;2022-08-06T10:22:30;24.03;41.17
40059;SHT31;25763;49.972;8.568;2022-08-06T10:24:57;24.10;39.30
40059;SHT31;25763;49.972;8.568;2022-08-06T10:27:33;23.68;40.62
40059;SHT31;25763;49.972;8.568;2022-08-06T10:30:06;23.58;38.41
40059;SHT31;25763;49.972;8.568;2022-08-06T10:32:52;23.82;40.66
40059;SHT31;25763;49.972;8.568;2022-08-06T10:35:21;23.92;41.31
40059;SHT31;25763;49.972;8.568;2022-08-06T10:37:51;23.96;40.66
40059;SHT31;25763;49.972;8.568;2022-08-06T10:40:19;24.02;42.21
40059;SHT31;25763;49.972;8.568;2022-08-06T10:42:46;23.55;40.00
40059;SHT31;25763;49.972;8.568;2022-08-06T10:45:11;24.04;42.62
40059;SHT31;25763;49.972;8.568;2022-08-06T10:47:38;24.14;39.64
40059;SHT31;25763;49.972;8.568;2022-08-06T10:50:05;24.56;40.27
40059;SHT31;25763;49.972;8.568;2022-08-06T10:52:31;24.44;38.04
40059;SHT31;25763;49.972;8.568;2022-08-06T10:54:56;23.52;37.40
40059;SHT31;25763;49.972;8.568;2022-08-06T10:57:26;23.71;41.11
40059;SHT31;25763;49.972;8.568;2022-08-06T10:59:52;24.17;39.65
40059;SHT31;25763;49.972;8.568;2022-08-06T11:05:09;24.18;39.10
40059;SHT31;25763;49.972;8.568;2022-08-06T11:08:00;24.55;40.40
40059;SHT31;25763;49.972;8.568;2022-08-06T11:13:21;24.21;36.20
40059;SHT31;25763;49.972;8.568;2022-08-06T11:15:51;24.18;35.92
40059;SHT31;25763;49.972;8.568;2022-08-06T11:18:17;23.94;35.58
40059;SHT31;25763;49.972;8.568;2022-08-06T11:20:44;23.30;36.03
40059;SHT31;25763;49.972;8.568;2022-08-06T11:25:43;23.63;37.70
40059;SHT31;25763;49.972;8.568;2022-08-06T11:28:13;24.47;40.41
40059;SHT31;25763;49.972;8.568;2022-08-06T11:30:50;25.08;37.36
40059;SHT31;25763;49.972;8.568;2022-08-06T11:33:21;25.36;36.86
40059;SHT31;25763;49.972;8.568;2022-08-06T11:35:53;25.32;36.00
40059;SHT31;25763;49.972;8.568;2022-08-06T11:41:22;24.93;34.51
40059;SHT31;25763;49.972;8.568;2022-08-06T11:44:09;25.24;34.04
40059;SHT31;25763;49.972;8.568;2022-08-06T11:46:40;25.52;35.89
40059;SHT31;25763;49.972;8.568;2022-08-06T11:49:12;25.25;32.46
40059;SHT31;25763;49.972;8.568;2022-08-06T12:02:11;26.29;33.89
40059;SHT31;25763;49.972;8.568;2022-08-06T12:14:53;25.63;35.63
40059;SHT31;25763;49.972;8.568;2022-08-06T12:17:20;25.84;34.93
40059;SHT31;25763;49.972;8.568;2022-08-06T12:19:50;24.62;34.27
40059;SHT31;25763;49.972;8.568;2022-08-06T12:22:19;24.72;35.39
40059;SHT31;25763;49.972;8.568;2022-08-06T12:24:48;25.52;34.11
40059;SHT31;25763;49.972;8.568;2022-08-06T12:27:14;25.29;34.27
40059;SHT31;25763;49.972;8.568;2022-08-06T12:29:40;25.86;33.94
40059;SHT31;25763;49.972;8.568;2022-08-06T12:34:48;26.53;32.78
40059;SHT31;25763;49.972;8.568;2022-08-06T12:37:15;26.80;31.87
40059;SHT31;25763;49.972;8.568;2022-08-06T12:39:41;26.83;33.43
40059;SHT31;25763;49.972;8.568;2022-08-06T12:42:26;25.73;32.13
40059;SHT31;25763;49.972;8.568;2022-08-06T12:44:52;26.46;32.44
40059;SHT31;25763;49.972;8.568;2022-08-06T12:47:18;26.60;33.84
40059;SHT31;25763;49.972;8.568;2022-08-06T12:49:44;25.67;32.24
40059;SHT31;25763;49.972;8.568;2022-08-06T12:52:20;25.36;32.38
40059;SHT31;25763;49.972;8.568;2022-08-06T12:54:47;24.66;33.65
40059;SHT31;25763;49.972;8.568;2022-08-06T12:57:23;25.03;33.32
40059;SHT31;25763;49.972;8.568;2022-08-06T12:59:49;25.45;35.31
40059;SHT31;25763;49.972;8.568;2022-08-06T13:02:18;25.91;33.38
40059;SHT31;25763;49.972;8.568;2022-08-06T13:04:47;26.29;31.90
40059;SHT31;25763;49.972;8.568;2022-08-06T13:07:14;26.53;31.90
40059;SHT31;25763;49.972;8.568;2022-08-06T13:09:41;26.95;33.01
40059;SHT31;25763;49.972;8.568;2022-08-06T13:12:18;26.90;31.86
40059;SHT31;25763;49.972;8.568;2022-08-06T13:14:52;26.73;31.92
40059;SHT31;25763;49.972;8.568;2022-08-06T13:17:19;26.90;31.35
40059;SHT31;25763;49.972;8.568;2022-08-06T13:19:56;27.27;32.06
40059;SHT31;25763;49.972;8.568;2022-08-06T13:22:22;27.46;32.09
40059;SHT31;25763;49.972;8.568;2022-08-06T13:24:48;27.56;31.68
40059;SHT31;25763;49.972;8.568;2022-08-06T13:27:34;27.88;32.20
40059;SHT31;25763;49.972;8.568;2022-08-06T13:30:04;27.45;30.23
40059;SHT31;25763;49.972;8.568;2022-08-06T13:32:30;26.45;32.36
40059;SHT31;25763;49.972;8.568;2022-08-06T13:34:57;26.70;32.22
40059;SHT31;25763;49.972;8.568;2022-08-06T13:40:12;26.86;31.95
40059;SHT31;25763;49.972;8.568;2022-08-06T13:42:54;27.30;32.12
40059;SHT31;25763;49.972;8.568;2022-08-06T13:45:23;27.56;31.47
40059;SHT31;25763;49.972;8.568;2022-08-06T13:47:49;27.54;30.04
40059;SHT31;25763;49.972;8.568;2022-08-06T13:50:19;26.56;31.77
40059;SHT31;25763;49.972;8.568;2022-08-06T13:52:45;26.65;33.20
40059;SHT31;25763;49.972;8.568;2022-08-06T13:55:10;27.36;32.95
40059;SHT31;25763;49.972;8.568;2022-08-06T13:57:36;27.51;31.63
40059;SHT31;25763;49.972;8.568;2022-08-06T14:00:05;27.67;31.61
40059;SHT31;25763;49.972;8.568;2022-08-06T14:02:34;27.80;30.63
40059;SHT31;25763;49.972;8.568;2022-08-06T14:04:59;26.84;30.29
40059;SHT31;25763;49.972;8.568;2022-08-06T14:07:25;27.24;33.18
40059;SHT31;25763;49.972;8.568;2022-08-06T14:09:50;27.54;32.13
40059;SHT31;25763;49.972;8.568;2022-08-06T14:12:15;27.74;31.91
40059;SHT31;25763;49.972;8.568;2022-08-06T14:14:41;27.89;30.49
40059;SHT31;25763;49.972;8.568;2022-08-06T14:17:06;27.57;31.23
40059;SHT31;25763;49.972;8.568;2022-08-06T14:19:31;27.32;30.73
40059;SHT31;25763;49.972;8.568;2022-08-06T14:21:57;27.74;31.23
40059;SHT31;25763;49.972;8.568;2022-08-06T14:24:22;27.96;30.78
40059;SHT31;25763;49.972;8.568;2022-08-06T14:26:48;27.42;29.53
40059;SHT31;25763;49.972;8.568;2022-08-06T14:29:13;27.46;31.19
40059;SHT31;25763;49.972;8.568;2022-08-06T14:31:38;27.67;30.11
40059;SHT31;25763;49.972;8.568;2022-08-06T14:34:04;27.93;30.81
40059;SHT31;25763;49.972;8.568;2022-08-06T14:36:30;27.81;28.37
40059;SHT31;25763;49.972;8.568;2022-08-06T14:38:56;27.39;29.49
40059;SHT31;25763;49.972;8.568;2022-08-06T14:41:21;27.30;30.97
40059;SHT31;25763;49.972;8.568;2022-08-06T14:44:06;27.40;30.63
40059;SHT31;25763;49.972;8.568;2022-08-06T14:46:50;26.64;31.77
40059;SHT31;25763;49.972;8.568;2022-08-06T14:49:15;25.97;32.20
40059;SHT31;25763;49.972;8.568;2022-08-06T14:51:40;26.53;32.17
40059;SHT31;25763;49.972;8.568;2022-08-06T14:54:06;27.11;31.02
40059;SHT31;25763;49.972;8.568;2022-08-06T14:56:31;27.60;31.49
40059;SHT31;25763;49.972;8.568;2022-08-06T14:58:56;26.94;28.49
40059;SHT31;25763;49.972;8.568;2022-08-06T15:01:22;26.33;30.12
40059;SHT31;25763;49.972;8.568;2022-08-06T15:03:47;26.00;31.78
40059;SHT31;25763;49.972;8.568;2022-08-06T15:06:12;26.26;32.60
40059;SHT31;25763;49.972;8.568;2022-08-06T15:08:38;26.95;32.03
40059;SHT31;25763;49.972;8.568;2022-08-06T15:11:04;26.64;30.31
40059;SHT31;25763;49.972;8.568;2022-08-06T15:13:29;27.45;32.25
40059;SHT31;25763;49.972;8.568;2022-08-06T15:15:54;27.20;31.60
40059;SHT31;25763;49.972;8.568;2022-08-06T15:18:20;27.63;30.08
40059;SHT31;25763;49.972;8.568;2022-08-06T15:20:46;27.50;30.67
40059;SHT31;25763;49.972;8.568;2022-08-06T15:23:12;27.39;31.06
40059;SHT31;25763;49.972;8.568;2022-08-06T15:25:37;26.24;31.43
40059;SHT31;25763;49.972;8.568;2022-08-06T15:28:03;26.67;31.78
40059;SHT31;25763;49.972;8.568;2022-08-06T15:30:28;27.54;33.37
40059;SHT31;25763;49.972;8.568;2022-08-06T15:32:54;27.85;32.21
40059;SHT31;25763;49.972;8.568;2022-08-06T15:35:20;27.86;30.46
40059;SHT31;25763;49.972;8.568;2022-08-06T15:37:45;26.92;29.69
40059;SHT31;25763;49.972;8.568;2022-08-06T15:40:11;26.39;31.02
40059;SHT31;25763;49.972;8.568;2022-08-06T15:42:36;26.98;32.20
40059;SHT31;25763;49.972;8.568;2022-08-06T15:45:02;27.02;31.03
40059;SHT31;25763;49.972;8.568;2022-08-06T15:47:27;27.01;29.80
40059;SHT31;25763;49.972;8.568;2022-08-06T15:49:53;27.22;31.89
40059;SHT31;25763;49.972;8.568;2022-08-06T15:52:18;27.01;30.30
40059;SHT31;25763;49.972;8.568;2022-08-06T15:54:43;25.71;32.16
40059;SHT31;25763;49.972;8.568;2022-08-06T15:57:09;25.46;32.60
40059;SHT31;25763;49.972;8.568;2022-08-06T15:59:34;25.52;34.99
40059;SHT31;25763;49.972;8.568;2022-08-06T16:01:59;26.04;32.71
40059;SHT31;25763;49.972;8.568;2022-08-06T16:04:25;26.20;34.02
40059;SHT31;25763;49.972;8.568;2022-08-06T16:06:50;25.97;31.24
40059;SHT31;25763;49.972;8.568;2022-08-06T16:09:18;26.29;33.56
40059;SHT31;25763;49.972;8.568;2022-08-06T16:11:43;26.68;32.92
40059;SHT31;25763;49.972;8.568;2022-08-06T16:14:09;26.98;32.81
40059;SHT31;25763;49.972;8.568;2022-08-06T16:16:34;26.67;30.42
40059;SHT31;25763;49.972;8.568;2022-08-06T16:19:00;26.84;33.08
40059;SHT31;25763;49.972;8.568;2022-08-06T16:21:25;26.52;30.98
40059;SHT31;25763;49.972;8.568;2022-08-06T16:23:51;26.54;33.62
40059;SHT31;25763;49.972;8.568;2022-08-06T16:26:16;26.81;34.58
40059;SHT31;25763;49.972;8.568;2022-08-06T16:28:47;26.14;31.63
40059;SHT31;25763;49.972;8.568;2022-08-06T16:31:13;25.53;33.13